createdAt,value
2023-04-14T00:02:00.644Z,36.60
2023-04-14T00:07:02.482Z,47.10
2023-04-14T00:12:04.379Z,42.30
2023-04-14T00:17:06.118Z,47.80
2023-04-14T00:22:08.494Z,42.60
2023-04-14T00:27:11.224Z,42.70
2023-04-14T00:32:12.831Z,38.70
2023-04-14T00:37:14.489Z,51.60
2023-04-14T00:42:16.182Z,48.80
2023-04-14T00:47:18.300Z,51.50
2023-04-14T00:52:23.714Z,56.90
2023-04-14T00:57:27.230Z,54.90
2023-04-14T01:02:28.995Z,49.80
2023-04-14T01:07:31.305Z,56.00
2023-04-14T01:12:57.227Z,51.30
2023-04-14T01:18:08.150Z,56.50
2023-04-14T01:23:41.092Z,53.80
2023-04-14T01:29:03.834Z,60.80
2023-04-14T01:34:29.981Z,54.10
2023-04-14T01:39:37.780Z,66.50
2023-04-14T01:44:41.441Z,65.50
2023-04-14T01:49:45.632Z,59.60
2023-04-14T01:54:51.110Z,70.70
2023-04-14T01:59:57.479Z,46.90
2023-04-14T02:05:00.865Z,62.00
2023-04-14T02:10:06.406Z,70.10
2023-04-14T02:15:13.388Z,72.70
2023-04-14T02:20:16.100Z,60.40
2023-04-14T02:25:18.202Z,60.10
2023-04-14T02:30:29.480Z,47.60
2023-04-14T02:35:39.759Z,72.90
2023-04-14T02:40:43.857Z,73.70
2023-04-14T02:45:51.535Z,72.10
2023-04-14T02:50:55.975Z,67.30
2023-04-14T02:56:00.681Z,60.00
2023-04-14T03:01:04.350Z,65.30
2023-04-14T03:06:07.108Z,68.50
2023-04-14T03:16:13.053Z,65.10
2023-04-14T03:21:18.444Z,68.70
2023-04-14T03:26:23.564Z,62.90
2023-04-14T03:31:32.523Z,62.50
2023-04-14T03:36:36.452Z,61.40
2023-04-14T03:41:40.493Z,53.40
2023-04-14T03:46:42.915Z,61.80
2023-04-14T03:51:49.159Z,64.10
2023-04-14T03:56:56.662Z,51.90
2023-04-14T04:01:59.263Z,60.10
2023-04-14T04:07:01.578Z,68.90
2023-04-14T04:12:05.445Z,62.80
2023-04-14T04:17:08.995Z,60.80
2023-04-14T04:22:14.381Z,83.10
2023-04-14T04:27:27.133Z,61.00
2023-04-14T04:32:30.560Z,55.90
2023-04-14T04:37:33.648Z,52.70
2023-04-14T04:42:41.999Z,52.90
2023-04-14T04:47:44.394Z,51.30
2023-04-14T04:52:47.711Z,50.40
2023-04-14T04:57:49.566Z,52.50
2023-04-14T05:02:51.391Z,53.80
2023-04-14T05:07:53.163Z,54.90
2023-04-14T05:12:54.787Z,52.90
2023-04-14T05:17:56.578Z,54.50
2023-04-14T05:22:58.258Z,56.90
2023-04-14T05:28:00.750Z,55.40
2023-04-14T05:33:02.696Z,50.40
2023-04-14T05:38:04.424Z,50.30
2023-04-14T05:43:06.486Z,45.20
2023-04-14T05:48:08.774Z,45.90
2023-04-14T05:53:11.903Z,51.00
2023-04-14T05:58:14.731Z,47.80
2023-04-14T06:03:17.011Z,47.30
2023-04-14T06:13:22.903Z,44.60
2023-04-14T06:18:24.684Z,46.40
2023-04-14T06:23:26.715Z,38.40
2023-04-14T06:28:28.715Z,51.60
2023-04-14T06:33:30.408Z,50.40
2023-04-14T06:38:32.093Z,50.70
2023-04-14T06:43:34.010Z,48.50
2023-04-14T06:48:35.661Z,51.50
2023-04-14T06:53:37.842Z,49.50
2023-04-14T07:03:43.653Z,44.00
2023-04-14T07:08:46.828Z,47.10
2023-04-14T07:13:48.732Z,50.60
2023-04-14T07:18:50.383Z,47.00
2023-04-14T07:23:52.115Z,46.60
2023-04-14T07:28:53.864Z,45.70
2023-04-14T07:33:55.487Z,46.10
2023-04-14T07:38:57.329Z,45.80
2023-04-14T07:44:00.168Z,45.50
2023-04-14T07:49:02.205Z,42.70
2023-04-14T07:54:05.842Z,49.30
2023-04-14T07:59:07.712Z,54.60
2023-04-14T08:04:09.539Z,42.30
2023-04-14T08:09:12.310Z,45.90
2023-04-14T08:14:14.186Z,30.90
2023-04-14T08:19:15.972Z,43.20
2023-04-14T08:24:18.135Z,36.90
2023-04-14T08:34:28.436Z,36.30
2023-04-14T08:39:30.492Z,43.80
2023-04-14T08:44:32.377Z,36.50
2023-04-14T08:49:52.036Z,32.70
2023-04-14T08:54:57.182Z,37.70
2023-04-14T08:59:59.449Z,32.50
2023-04-14T09:05:01.488Z,53.70
2023-04-14T09:10:03.915Z,44.90
2023-04-14T09:15:06.352Z,38.60
2023-04-14T09:20:37.400Z,36.90
2023-04-14T09:25:30.424Z,33.20
2023-04-14T09:30:33.087Z,29.90
2023-04-14T09:40:54.923Z,36.10
2023-04-14T09:46:04.969Z,32.90
2023-04-14T09:51:10.048Z,27.80
2023-04-14T09:56:12.796Z,28.60
2023-04-14T10:01:19.907Z,32.80
2023-04-14T10:06:24.199Z,27.90
2023-04-14T10:11:29.325Z,40.90
2023-04-14T10:16:32.273Z,42.00
2023-04-14T10:21:34.768Z,36.50
2023-04-14T10:26:36.474Z,44.50
2023-04-14T10:31:42.655Z,36.90
2023-04-14T10:36:44.881Z,41.50
2023-04-14T10:46:50.006Z,35.20
2023-04-14T10:51:52.240Z,34.20
2023-04-14T10:57:11.185Z,32.80
2023-04-14T11:02:33.821Z,40.10
2023-04-14T11:07:46.267Z,24.90
2023-04-14T11:12:54.496Z,177.00
2023-04-14T11:18:12.261Z,27.30
2023-04-14T11:23:15.081Z,18.70
2023-04-14T11:28:26.282Z,23.60
2023-04-14T11:33:34.188Z,14.30
2023-04-14T11:38:40.647Z,15.10
2023-04-14T11:43:46.672Z,15.20
2023-04-14T11:48:54.193Z,11.40
2023-04-14T11:53:56.448Z,10.70
2023-04-14T11:59:05.780Z,9.30
2023-04-14T12:04:10.684Z,10.60
2023-04-14T12:09:12.500Z,12.00
2023-04-14T12:14:14.494Z,7.90
2023-04-14T12:19:17.163Z,10.00
2023-04-14T12:29:22.953Z,10.30
2023-04-14T12:34:26.506Z,12.60
2023-04-14T12:39:28.554Z,8.30
2023-04-14T12:44:30.456Z,7.10
2023-04-14T12:49:34.742Z,8.60
2023-04-14T12:54:52.156Z,8.70
2023-04-14T12:59:54.302Z,12.00
2023-04-14T13:04:56.907Z,7.80
2023-04-14T13:09:58.747Z,10.10
2023-04-14T13:15:02.134Z,11.50
2023-04-14T13:20:04.017Z,10.20
2023-04-14T13:30:09.166Z,9.40
2023-04-14T13:35:12.426Z,7.50
2023-04-14T13:40:14.252Z,10.20
2023-04-14T13:45:16.111Z,9.50
2023-04-14T13:55:21.002Z,9.40
2023-04-14T14:00:22.790Z,9.00
2023-04-14T14:05:24.637Z,8.60
2023-04-14T14:10:26.492Z,6.90
2023-04-14T14:15:28.254Z,8.00
2023-04-14T14:20:29.905Z,9.20
2023-04-14T14:25:31.818Z,8.10
2023-04-14T14:30:33.456Z,9.30
2023-04-14T14:35:35.121Z,9.50
2023-04-14T14:45:38.726Z,11.10
2023-04-14T14:50:40.767Z,10.20
2023-04-14T14:55:42.447Z,11.40
2023-04-14T15:00:44.447Z,13.50
2023-04-14T15:10:51.304Z,9.80
2023-04-14T15:15:53.049Z,12.20
2023-04-14T15:20:54.831Z,11.70
2023-04-14T15:25:56.858Z,13.00
2023-04-14T15:30:58.539Z,10.00
2023-04-14T15:36:00.237Z,12.50
2023-04-14T15:41:01.990Z,15.70
2023-04-14T15:46:03.638Z,12.10
2023-04-14T15:51:05.916Z,11.40
2023-04-14T15:56:07.772Z,14.40
2023-04-14T16:01:09.553Z,13.00
2023-04-14T16:06:11.509Z,14.80
2023-04-14T16:11:15.677Z,12.50
2023-04-14T16:16:17.838Z,12.60
2023-04-14T16:21:19.770Z,11.80
2023-04-14T16:26:21.699Z,12.70
2023-04-14T16:31:23.503Z,11.60
2023-04-14T16:36:26.281Z,21.10
2023-04-14T16:41:28.201Z,12.90
2023-04-14T16:46:29.852Z,15.30
2023-04-14T16:51:31.711Z,12.60
2023-04-14T16:56:36.785Z,16.10
2023-04-14T17:01:39.836Z,15.10
2023-04-14T17:11:43.338Z,32.40
2023-04-14T17:16:45.090Z,18.80
2023-04-14T17:21:47.019Z,17.30
2023-04-14T17:26:49.227Z,18.60
2023-04-14T17:31:51.273Z,21.00
2023-04-14T17:36:54.157Z,20.40
2023-04-14T17:41:57.957Z,18.80
2023-04-14T17:47:11.399Z,20.70
2023-04-14T17:52:13.629Z,23.40
2023-04-14T17:57:17.299Z,31.30
2023-04-14T18:02:19.581Z,24.20
2023-04-14T18:07:21.563Z,27.30
2023-04-14T18:12:23.889Z,27.70
2023-04-14T18:17:25.942Z,25.20
2023-04-14T18:22:30.144Z,27.80
2023-04-14T18:32:40.187Z,24.30
2023-04-14T18:37:43.128Z,25.20
2023-04-14T18:42:44.971Z,27.10
2023-04-14T18:47:47.543Z,32.60
2023-04-14T18:52:49.700Z,31.10
2023-04-14T18:57:52.648Z,34.60
2023-04-14T19:02:55.678Z,42.40
2023-04-14T19:07:57.643Z,32.80
2023-04-14T19:12:59.589Z,33.70
2023-04-14T19:18:03.646Z,28.40
2023-04-14T19:23:06.850Z,24.20
2023-04-14T19:28:16.444Z,25.60
2023-04-14T19:33:19.698Z,21.00
2023-04-14T19:38:21.418Z,20.50
2023-04-14T19:43:23.321Z,20.30
2023-04-14T19:48:25.315Z,17.60
2023-04-14T19:53:28.231Z,22.00
2023-04-14T19:58:31.270Z,19.50
2023-04-14T20:03:34.637Z,21.40
2023-04-14T20:08:37.070Z,19.80
2023-04-14T20:13:39.734Z,24.90
2023-04-14T20:18:45.229Z,24.50
2023-04-14T20:23:46.974Z,19.60
2023-04-14T20:28:49.480Z,21.00
2023-04-14T20:33:51.163Z,20.20
2023-04-14T20:38:53.020Z,20.70
2023-04-14T20:43:54.692Z,25.10
2023-04-14T20:48:56.734Z,24.70
2023-04-14T20:53:58.432Z,20.80
2023-04-14T20:59:00.404Z,26.40
2023-04-14T21:04:02.509Z,20.40
2023-04-14T21:09:05.629Z,25.50
2023-04-14T21:15:31.420Z,23.10
2023-04-14T21:19:33.197Z,21.80
2023-04-14T21:24:35.028Z,26.10
2023-04-14T21:29:36.988Z,22.20
2023-04-14T21:34:38.778Z,20.00
2023-04-14T21:39:40.636Z,22.20
2023-04-14T21:44:43.889Z,15.30
2023-04-14T21:49:46.643Z,18.20
2023-04-14T21:55:09.255Z,17.60
2023-04-14T22:00:14.770Z,17.50
2023-04-14T22:05:16.627Z,18.40
2023-04-14T22:10:18.359Z,19.40
2023-04-14T22:15:20.281Z,17.10
2023-04-14T22:20:23.795Z,18.80
2023-04-14T22:25:26.069Z,19.20
2023-04-14T22:35:30.121Z,14.60
2023-04-14T22:40:32.223Z,11.80
2023-04-14T22:45:37.805Z,15.20
2023-04-14T22:50:39.417Z,13.40
2023-04-14T22:55:42.642Z,19.00
2023-04-14T23:00:45.656Z,17.70
2023-04-14T23:05:47.420Z,19.60
2023-04-14T23:10:57.556Z,11.40
2023-04-14T23:16:07.801Z,17.90
2023-04-14T23:21:10.170Z,12.20
2023-04-14T23:26:12.216Z,22.70
2023-04-14T23:31:14.268Z,24.00
2023-04-14T23:36:16.640Z,26.20
2023-04-14T23:41:21.878Z,32.40
2023-04-14T23:46:36.075Z,31.40
2023-04-14T23:51:40.382Z,29.70
2023-04-14T23:56:41.989Z,33.30
